sensor_id;sensor_type;location;lat;lon;timestamp;P1;durP1;ratioP1;P2;durP2;ratioP2
14139;SDS011;7150;53.514;9.988;2022-11-15T00:01:43;29.97;;;16.50;;
14139;SDS011;7150;53.514;9.988;2022-11-15T00:04:09;28.77;;;16.53;;
14139;SDS011;7150;53.514;9.988;2022-11-15T00:06:35;29.80;;;16.17;;
14139;SDS011;7150;53.514;9.988;2022-11-15T00:09:01;30.17;;;17.27;;
14139;SDS011;7150;53.514;9.988;2022-11-15T00:11:27;27.93;;;15.63;;
14139;SDS011;7150;53.514;9.988;2022-11-15T00:13:56;30.13;;;17.57;;
14139;SDS011;7150;53.514;9.988;2022-11-15T00:16:23;24.77;;;15.70;;
14139;SDS011;7150;53.514;9.988;2022-11-15T00:18:49;27.40;;;16.50;;
14139;SDS011;7150;53.514;9.988;2022-11-15T00:21:15;29.17;;;15.17;;
14139;SDS011;7150;53.514;9.988;2022-11-15T00:23:41;27.10;;;14.73;;
14139;SDS011;7150;53.514;9.988;2022-11-15T00:26:07;30.27;;;16.90;;
14139;SDS011;7150;53.514;9.988;2022-11-15T00:28:38;33.03;;;17.10;;
14139;SDS011;7150;53.514;9.988;2022-11-15T00:31:04;30.50;;;15.90;;
14139;SDS011;7150;53.514;9.988;2022-11-15T00:33:31;29.20;;;16.73;;
14139;SDS011;7150;53.514;9.988;2022-11-15T00:36:04;30.63;;;16.77;;
14139;SDS011;7150;53.514;9.988;2022-11-15T00:38:35;28.20;;;16.30;;
14139;SDS011;7150;53.514;9.988;2022-11-15T00:41:03;26.27;;;15.60;;
14139;SDS011;7150;53.514;9.988;2022-11-15T00:43:30;30.37;;;15.47;;
14139;SDS011;7150;53.514;9.988;2022-11-15T00:45:55;27.50;;;14.87;;
14139;SDS011;7150;53.514;9.988;2022-11-15T00:48:21;30.53;;;16.53;;
14139;SDS011;7150;53.514;9.988;2022-11-15T00:50:47;30.43;;;16.70;;
14139;SDS011;7150;53.514;9.988;2022-11-15T00:53:13;28.87;;;15.63;;
14139;SDS011;7150;53.514;9.988;2022-11-15T00:55:39;27.87;;;15.70;;
14139;SDS011;7150;53.514;9.988;2022-11-15T00:58:04;28.83;;;15.10;;
14139;SDS011;7150;53.514;9.988;2022-11-15T01:00:30;29.30;;;16.43;;
14139;SDS011;7150;53.514;9.988;2022-11-15T01:02:55;26.63;;;15.97;;
14139;SDS011;7150;53.514;9.988;2022-11-15T01:05:21;29.67;;;15.60;;
14139;SDS011;7150;53.514;9.988;2022-11-15T01:07:47;28.53;;;14.73;;
14139;SDS011;7150;53.514;9.988;2022-11-15T01:10:17;26.93;;;15.07;;
14139;SDS011;7150;53.514;9.988;2022-11-15T01:12:43;26.63;;;15.13;;
14139;SDS011;7150;53.514;9.988;2022-11-15T01:15:08;29.83;;;16.33;;
14139;SDS011;7150;53.514;9.988;2022-11-15T01:17:34;26.57;;;15.17;;
14139;SDS011;7150;53.514;9.988;2022-11-15T01:19:59;29.63;;;16.23;;
14139;SDS011;7150;53.514;9.988;2022-11-15T01:22:25;30.30;;;15.67;;
14139;SDS011;7150;53.514;9.988;2022-11-15T01:24:51;29.30;;;16.37;;
14139;SDS011;7150;53.514;9.988;2022-11-15T01:27:16;25.60;;;14.93;;
14139;SDS011;7150;53.514;9.988;2022-11-15T01:29:42;28.60;;;15.63;;
14139;SDS011;7150;53.514;9.988;2022-11-15T01:32:07;26.53;;;15.50;;
14139;SDS011;7150;53.514;9.988;2022-11-15T01:34:33;26.80;;;16.67;;
14139;SDS011;7150;53.514;9.988;2022-11-15T01:36:58;26.73;;;14.70;;
14139;SDS011;7150;53.514;9.988;2022-11-15T01:39:24;28.30;;;15.63;;
14139;SDS011;7150;53.514;9.988;2022-11-15T01:41:50;26.07;;;15.53;;
14139;SDS011;7150;53.514;9.988;2022-11-15T01:46:57;28.17;;;16.83;;
14139;SDS011;7150;53.514;9.988;2022-11-15T01:49:25;30.80;;;16.43;;
14139;SDS011;7150;53.514;9.988;2022-11-15T01:51:53;28.27;;;16.07;;
14139;SDS011;7150;53.514;9.988;2022-11-15T01:54:20;26.07;;;15.83;;
14139;SDS011;7150;53.514;9.988;2022-11-15T01:56:50;32.60;;;17.03;;
14139;SDS011;7150;53.514;9.988;2022-11-15T01:59:36;30.63;;;15.33;;
14139;SDS011;7150;53.514;9.988;2022-11-15T02:02:05;29.97;;;16.67;;
14139;SDS011;7150;53.514;9.988;2022-11-15T02:04:31;27.60;;;13.50;;
14139;SDS011;7150;53.514;9.988;2022-11-15T02:06:58;26.00;;;14.50;;
14139;SDS011;7150;53.514;9.988;2022-11-15T02:09:26;29.20;;;15.93;;
14139;SDS011;7150;53.514;9.988;2022-11-15T02:11:52;24.33;;;14.67;;
14139;SDS011;7150;53.514;9.988;2022-11-15T02:14:19;27.23;;;16.07;;
14139;SDS011;7150;53.514;9.988;2022-11-15T02:24:55;29.63;;;16.20;;
14139;SDS011;7150;53.514;9.988;2022-11-15T02:27:42;30.70;;;16.60;;
14139;SDS011;7150;53.514;9.988;2022-11-15T02:30:21;28.77;;;14.87;;
14139;SDS011;7150;53.514;9.988;2022-11-15T02:32:54;31.47;;;16.33;;
14139;SDS011;7150;53.514;9.988;2022-11-15T02:37:52;26.53;;;15.07;;
14139;SDS011;7150;53.514;9.988;2022-11-15T02:43:12;27.77;;;15.50;;
14139;SDS011;7150;53.514;9.988;2022-11-15T02:46:18;26.93;;;13.80;;
14139;SDS011;7150;53.514;9.988;2022-11-15T02:49:16;29.87;;;15.40;;
14139;SDS011;7150;53.514;9.988;2022-11-15T02:51:42;26.43;;;14.80;;
14139;SDS011;7150;53.514;9.988;2022-11-15T02:54:14;30.97;;;15.83;;
14139;SDS011;7150;53.514;9.988;2022-11-15T02:56:44;26.33;;;14.93;;
14139;SDS011;7150;53.514;9.988;2022-11-15T03:02:05;24.50;;;13.30;;
14139;SDS011;7150;53.514;9.988;2022-11-15T03:07:30;28.10;;;14.33;;
14139;SDS011;7150;53.514;9.988;2022-11-15T03:10:06;28.83;;;15.40;;
14139;SDS011;7150;53.514;9.988;2022-11-15T03:12:41;28.00;;;14.53;;
14139;SDS011;7150;53.514;9.988;2022-11-15T03:15:32;28.83;;;15.43;;
14139;SDS011;7150;53.514;9.988;2022-11-15T03:18:21;24.30;;;14.57;;
14139;SDS011;7150;53.514;9.988;2022-11-15T03:21:00;27.17;;;14.83;;
14139;SDS011;7150;53.514;9.988;2022-11-15T03:23:29;31.10;;;14.87;;
14139;SDS011;7150;53.514;9.988;2022-11-15T03:25:56;25.07;;;14.07;;
14139;SDS011;7150;53.514;9.988;2022-11-15T03:28:32;25.13;;;14.57;;
14139;SDS011;7150;53.514;9.988;2022-11-15T03:31:02;28.80;;;14.93;;
14139;SDS011;7150;53.514;9.988;2022-11-15T03:33:52;23.10;;;13.73;;
14139;SDS011;7150;53.514;9.988;2022-11-15T03:36:20;32.23;;;15.93;;
14139;SDS011;7150;53.514;9.988;2022-11-15T03:38:47;25.10;;;13.37;;
14139;SDS011;7150;53.514;9.988;2022-11-15T03:41:15;25.67;;;14.43;;
14139;SDS011;7150;53.514;9.988;2022-11-15T03:46:52;25.90;;;14.07;;
14139;SDS011;7150;53.514;9.988;2022-11-15T03:49:29;27.07;;;13.60;;
14139;SDS011;7150;53.514;9.988;2022-11-15T03:52:03;26.60;;;13.57;;
14139;SDS011;7150;53.514;9.988;2022-11-15T03:54:29;25.47;;;13.20;;
14139;SDS011;7150;53.514;9.988;2022-11-15T03:56:55;27.00;;;14.40;;
14139;SDS011;7150;53.514;9.988;2022-11-15T03:59:21;22.73;;;13.03;;
14139;SDS011;7150;53.514;9.988;2022-11-15T04:01:46;24.03;;;13.20;;
14139;SDS011;7150;53.514;9.988;2022-11-15T04:04:12;25.83;;;14.10;;
14139;SDS011;7150;53.514;9.988;2022-11-15T04:06:38;25.37;;;13.87;;
14139;SDS011;7150;53.514;9.988;2022-11-15T04:09:03;23.20;;;13.73;;
14139;SDS011;7150;53.514;9.988;2022-11-15T04:11:29;22.37;;;13.57;;
14139;SDS011;7150;53.514;9.988;2022-11-15T04:13:54;24.03;;;13.33;;
14139;SDS011;7150;53.514;9.988;2022-11-15T04:16:20;23.77;;;13.33;;
14139;SDS011;7150;53.514;9.988;2022-11-15T04:18:45;24.40;;;12.67;;
14139;SDS011;7150;53.514;9.988;2022-11-15T04:21:31;23.43;;;12.63;;
14139;SDS011;7150;53.514;9.988;2022-11-15T04:24:15;24.70;;;13.37;;
14139;SDS011;7150;53.514;9.988;2022-11-15T04:26:41;22.70;;;13.47;;
14139;SDS011;7150;53.514;9.988;2022-11-15T04:29:06;25.60;;;14.37;;
14139;SDS011;7150;53.514;9.988;2022-11-15T04:31:50;23.07;;;13.00;;
14139;SDS011;7150;53.514;9.988;2022-11-15T04:34:16;26.17;;;14.23;;
14139;SDS011;7150;53.514;9.988;2022-11-15T04:36:41;22.33;;;12.17;;
14139;SDS011;7150;53.514;9.988;2022-11-15T04:39:25;23.73;;;13.97;;
14139;SDS011;7150;53.514;9.988;2022-11-15T04:41:51;26.97;;;12.80;;
14139;SDS011;7150;53.514;9.988;2022-11-15T04:44:16;21.17;;;12.57;;
14139;SDS011;7150;53.514;9.988;2022-11-15T04:46:42;22.83;;;12.60;;
14139;SDS011;7150;53.514;9.988;2022-11-15T04:49:07;22.90;;;13.27;;
14139;SDS011;7150;53.514;9.988;2022-11-15T04:51:33;23.73;;;13.47;;
14139;SDS011;7150;53.514;9.988;2022-11-15T04:53:58;25.57;;;13.50;;
14139;SDS011;7150;53.514;9.988;2022-11-15T04:56:24;22.90;;;13.50;;
14139;SDS011;7150;53.514;9.988;2022-11-15T04:58:49;23.37;;;13.87;;
14139;SDS011;7150;53.514;9.988;2022-11-15T05:01:15;22.80;;;13.40;;
14139;SDS011;7150;53.514;9.988;2022-11-15T05:03:41;25.23;;;13.87;;
14139;SDS011;7150;53.514;9.988;2022-11-15T05:06:26;24.90;;;14.50;;
14139;SDS011;7150;53.514;9.988;2022-11-15T05:08:51;20.40;;;12.73;;
14139;SDS011;7150;53.514;9.988;2022-11-15T05:11:17;21.30;;;12.00;;
14139;SDS011;7150;53.514;9.988;2022-11-15T05:13:43;22.50;;;12.63;;
14139;SDS011;7150;53.514;9.988;2022-11-15T05:16:08;24.57;;;13.23;;
14139;SDS011;7150;53.514;9.988;2022-11-15T05:18:34;22.47;;;12.70;;
14139;SDS011;7150;53.514;9.988;2022-11-15T05:21:03;20.60;;;12.23;;
14139;SDS011;7150;53.514;9.988;2022-11-15T05:23:30;23.93;;;12.00;;
14139;SDS011;7150;53.514;9.988;2022-11-15T05:25:58;24.53;;;13.07;;
14139;SDS011;7150;53.514;9.988;2022-11-15T05:28:24;21.80;;;13.13;;
14139;SDS011;7150;53.514;9.988;2022-11-15T05:30:50;21.20;;;12.63;;
14139;SDS011;7150;53.514;9.988;2022-11-15T05:33:15;20.53;;;11.90;;
14139;SDS011;7150;53.514;9.988;2022-11-15T05:35:41;21.03;;;11.20;;
14139;SDS011;7150;53.514;9.988;2022-11-15T05:38:11;21.43;;;12.73;;
14139;SDS011;7150;53.514;9.988;2022-11-15T05:40:36;22.43;;;11.93;;
14139;SDS011;7150;53.514;9.988;2022-11-15T05:43:02;18.73;;;10.40;;
14139;SDS011;7150;53.514;9.988;2022-11-15T05:45:29;18.93;;;11.50;;
14139;SDS011;7150;53.514;9.988;2022-11-15T05:47:56;19.23;;;12.27;;
14139;SDS011;7150;53.514;9.988;2022-11-15T05:50:24;20.93;;;11.83;;
14139;SDS011;7150;53.514;9.988;2022-11-15T05:52:51;20.37;;;11.07;;
14139;SDS011;7150;53.514;9.988;2022-11-15T05:55:16;20.47;;;11.60;;
14139;SDS011;7150;53.514;9.988;2022-11-15T05:57:42;20.13;;;12.10;;
14139;SDS011;7150;53.514;9.988;2022-11-15T06:00:08;21.60;;;11.67;;
14139;SDS011;7150;53.514;9.988;2022-11-15T06:02:34;19.40;;;11.40;;
14139;SDS011;7150;53.514;9.988;2022-11-15T06:05:00;19.77;;;12.00;;
14139;SDS011;7150;53.514;9.988;2022-11-15T06:07:25;21.40;;;12.57;;
14139;SDS011;7150;53.514;9.988;2022-11-15T06:09:51;19.33;;;11.83;;
14139;SDS011;7150;53.514;9.988;2022-11-15T06:12:16;17.40;;;9.97;;
14139;SDS011;7150;53.514;9.988;2022-11-15T06:14:42;17.97;;;10.77;;
14139;SDS011;7150;53.514;9.988;2022-11-15T06:17:07;16.87;;;10.07;;
14139;SDS011;7150;53.514;9.988;2022-11-15T06:19:33;18.67;;;11.00;;
14139;SDS011;7150;53.514;9.988;2022-11-15T06:21:59;17.40;;;11.10;;
14139;SDS011;7150;53.514;9.988;2022-11-15T06:24:24;18.97;;;11.10;;
14139;SDS011;7150;53.514;9.988;2022-11-15T06:26:50;17.10;;;11.07;;
14139;SDS011;7150;53.514;9.988;2022-11-15T06:29:16;18.80;;;11.10;;
14139;SDS011;7150;53.514;9.988;2022-11-15T06:31:41;20.07;;;11.20;;
14139;SDS011;7150;53.514;9.988;2022-11-15T06:34:07;19.77;;;11.80;;
14139;SDS011;7150;53.514;9.988;2022-11-15T06:36:35;17.80;;;10.83;;
14139;SDS011;7150;53.514;9.988;2022-11-15T06:39:02;17.63;;;11.00;;
14139;SDS011;7150;53.514;9.988;2022-11-15T06:41:29;21.00;;;11.23;;
14139;SDS011;7150;53.514;9.988;2022-11-15T06:43:54;18.10;;;10.97;;
14139;SDS011;7150;53.514;9.988;2022-11-15T06:46:20;23.23;;;12.10;;
14139;SDS011;7150;53.514;9.988;2022-11-15T06:48:45;22.27;;;12.27;;
14139;SDS011;7150;53.514;9.988;2022-11-15T06:51:11;19.70;;;11.97;;
14139;SDS011;7150;53.514;9.988;2022-11-15T06:53:36;17.90;;;11.30;;
14139;SDS011;7150;53.514;9.988;2022-11-15T06:56:03;19.27;;;11.50;;
14139;SDS011;7150;53.514;9.988;2022-11-15T06:58:30;19.23;;;11.40;;
14139;SDS011;7150;53.514;9.988;2022-11-15T07:01:04;20.57;;;11.43;;
14139;SDS011;7150;53.514;9.988;2022-11-15T07:03:31;17.97;;;10.93;;
14139;SDS011;7150;53.514;9.988;2022-11-15T07:05:58;20.53;;;11.67;;
14139;SDS011;7150;53.514;9.988;2022-11-15T07:08:26;22.93;;;11.67;;
14139;SDS011;7150;53.514;9.988;2022-11-15T07:10:53;20.47;;;11.00;;
14139;SDS011;7150;53.514;9.988;2022-11-15T07:13:19;19.50;;;10.97;;
14139;SDS011;7150;53.514;9.988;2022-11-15T07:15:44;19.83;;;10.63;;
14139;SDS011;7150;53.514;9.988;2022-11-15T07:18:10;19.33;;;11.43;;
14139;SDS011;7150;53.514;9.988;2022-11-15T07:20:35;20.50;;;11.13;;
14139;SDS011;7150;53.514;9.988;2022-11-15T07:23:01;18.70;;;11.07;;
14139;SDS011;7150;53.514;9.988;2022-11-15T07:25:30;17.90;;;11.87;;
14139;SDS011;7150;53.514;9.988;2022-11-15T07:27:59;18.30;;;10.63;;
14139;SDS011;7150;53.514;9.988;2022-11-15T07:30:25;19.03;;;11.83;;
14139;SDS011;7150;53.514;9.988;2022-11-15T07:32:54;18.83;;;11.10;;
14139;SDS011;7150;53.514;9.988;2022-11-15T07:35:21;19.03;;;10.93;;
14139;SDS011;7150;53.514;9.988;2022-11-15T07:37:54;18.80;;;11.73;;
14139;SDS011;7150;53.514;9.988;2022-11-15T07:40:21;17.17;;;10.40;;
14139;SDS011;7150;53.514;9.988;2022-11-15T07:42:46;18.97;;;11.00;;
14139;SDS011;7150;53.514;9.988;2022-11-15T07:45:18;18.37;;;11.63;;
14139;SDS011;7150;53.514;9.988;2022-11-15T07:47:50;17.27;;;10.47;;
14139;SDS011;7150;53.514;9.988;2022-11-15T07:50:16;20.53;;;12.10;;
14139;SDS011;7150;53.514;9.988;2022-11-15T07:52:42;19.23;;;11.30;;
14139;SDS011;7150;53.514;9.988;2022-11-15T07:55:08;17.87;;;11.60;;
14139;SDS011;7150;53.514;9.988;2022-11-15T07:57:34;17.90;;;10.80;;
14139;SDS011;7150;53.514;9.988;2022-11-15T08:00:00;18.17;;;10.97;;
14139;SDS011;7150;53.514;9.988;2022-11-15T08:02:25;17.37;;;10.80;;
14139;SDS011;7150;53.514;9.988;2022-11-15T08:04:51;16.60;;;9.90;;
14139;SDS011;7150;53.514;9.988;2022-11-15T08:07:16;19.03;;;10.67;;
14139;SDS011;7150;53.514;9.988;2022-11-15T08:09:42;18.30;;;10.73;;
14139;SDS011;7150;53.514;9.988;2022-11-15T08:12:08;19.63;;;11.67;;
14139;SDS011;7150;53.514;9.988;2022-11-15T08:14:34;20.73;;;11.73;;
14139;SDS011;7150;53.514;9.988;2022-11-15T08:17:00;16.37;;;10.30;;
14139;SDS011;7150;53.514;9.988;2022-11-15T08:19:25;16.87;;;10.27;;
14139;SDS011;7150;53.514;9.988;2022-11-15T08:21:51;17.20;;;11.50;;
14139;SDS011;7150;53.514;9.988;2022-11-15T08:24:16;17.97;;;10.43;;
14139;SDS011;7150;53.514;9.988;2022-11-15T08:26:42;16.17;;;10.30;;
14139;SDS011;7150;53.514;9.988;2022-11-15T08:29:07;16.47;;;10.43;;
14139;SDS011;7150;53.514;9.988;2022-11-15T08:31:34;20.07;;;11.10;;
14139;SDS011;7150;53.514;9.988;2022-11-15T08:34:01;19.47;;;11.10;;
14139;SDS011;7150;53.514;9.988;2022-11-15T08:36:27;17.60;;;11.33;;
14139;SDS011;7150;53.514;9.988;2022-11-15T08:38:52;16.57;;;10.20;;
14139;SDS011;7150;53.514;9.988;2022-11-15T08:41:21;20.10;;;11.30;;
14139;SDS011;7150;53.514;9.988;2022-11-15T08:44:00;20.23;;;11.30;;
14139;SDS011;7150;53.514;9.988;2022-11-15T08:46:26;16.67;;;9.77;;
14139;SDS011;7150;53.514;9.988;2022-11-15T08:48:52;17.20;;;10.40;;
14139;SDS011;7150;53.514;9.988;2022-11-15T08:51:17;16.90;;;10.77;;
14139;SDS011;7150;53.514;9.988;2022-11-15T08:53:43;18.33;;;10.53;;
14139;SDS011;7150;53.514;9.988;2022-11-15T08:56:09;16.77;;;10.63;;
14139;SDS011;7150;53.514;9.988;2022-11-15T08:58:36;18.47;;;11.10;;
14139;SDS011;7150;53.514;9.988;2022-11-15T09:01:02;18.87;;;10.70;;
14139;SDS011;7150;53.514;9.988;2022-11-15T09:03:28;20.83;;;11.63;;
14139;SDS011;7150;53.514;9.988;2022-11-15T09:05:57;18.97;;;11.10;;
14139;SDS011;7150;53.514;9.988;2022-11-15T09:08:25;16.93;;;10.87;;
14139;SDS011;7150;53.514;9.988;2022-11-15T09:10:54;16.43;;;10.37;;
14139;SDS011;7150;53.514;9.988;2022-11-15T09:13:20;16.63;;;10.90;;
14139;SDS011;7150;53.514;9.988;2022-11-15T09:15:45;16.73;;;11.00;;
14139;SDS011;7150;53.514;9.988;2022-11-15T09:18:11;17.93;;;9.87;;
14139;SDS011;7150;53.514;9.988;2022-11-15T09:20:37;16.33;;;10.73;;
14139;SDS011;7150;53.514;9.988;2022-11-15T09:23:03;14.83;;;10.00;;
14139;SDS011;7150;53.514;9.988;2022-11-15T09:25:29;17.47;;;10.60;;
14139;SDS011;7150;53.514;9.988;2022-11-15T09:27:55;16.20;;;10.33;;
14139;SDS011;7150;53.514;9.988;2022-11-15T09:30:21;17.87;;;10.97;;
14139;SDS011;7150;53.514;9.988;2022-11-15T09:32:47;16.33;;;10.17;;
14139;SDS011;7150;53.514;9.988;2022-11-15T09:35:13;17.17;;;10.67;;
14139;SDS011;7150;53.514;9.988;2022-11-15T09:37:38;18.80;;;10.23;;
14139;SDS011;7150;53.514;9.988;2022-11-15T09:40:04;19.97;;;11.40;;
14139;SDS011;7150;53.514;9.988;2022-11-15T09:48:03;16.47;;;10.07;;
14139;SDS011;7150;53.514;9.988;2022-11-15T09:50:54;17.93;;;10.73;;
14139;SDS011;7150;53.514;9.988;2022-11-15T09:53:27;17.83;;;10.90;;
14139;SDS011;7150;53.514;9.988;2022-11-15T09:56:05;15.60;;;9.93;;
14139;SDS011;7150;53.514;9.988;2022-11-15T10:03:57;16.00;;;10.47;;
14139;SDS011;7150;53.514;9.988;2022-11-15T10:06:25;15.60;;;9.57;;
14139;SDS011;7150;53.514;9.988;2022-11-15T10:11:32;14.03;;;10.33;;
14139;SDS011;7150;53.514;9.988;2022-11-15T10:14:01;16.67;;;9.50;;
14139;SDS011;7150;53.514;9.988;2022-11-15T10:24:39;16.53;;;10.37;;
14139;SDS011;7150;53.514;9.988;2022-11-15T10:27:08;15.97;;;9.87;;
14139;SDS011;7150;53.514;9.988;2022-11-15T10:29:40;16.97;;;9.57;;
14139;SDS011;7150;53.514;9.988;2022-11-15T10:32:12;16.13;;;9.80;;
14139;SDS011;7150;53.514;9.988;2022-11-15T10:34:39;18.43;;;10.30;;
14139;SDS011;7150;53.514;9.988;2022-11-15T10:37:04;20.77;;;10.40;;
14139;SDS011;7150;53.514;9.988;2022-11-15T10:39:30;15.57;;;10.30;;
14139;SDS011;7150;53.514;9.988;2022-11-15T10:41:55;16.10;;;9.60;;
14139;SDS011;7150;53.514;9.988;2022-11-15T10:44:23;15.10;;;10.27;;
14139;SDS011;7150;53.514;9.988;2022-11-15T10:49:28;18.10;;;9.93;;
14139;SDS011;7150;53.514;9.988;2022-11-15T10:52:37;17.77;;;9.60;;
14139;SDS011;7150;53.514;9.988;2022-11-15T10:54:46;17.23;;;10.53;;
14139;SDS011;7150;53.514;9.988;2022-11-15T10:57:17;22.03;;;9.63;;
14139;SDS011;7150;53.514;9.988;2022-11-15T10:59:46;16.10;;;9.63;;
14139;SDS011;7150;53.514;9.988;2022-11-15T11:05:03;14.63;;;9.43;;
14139;SDS011;7150;53.514;9.988;2022-11-15T11:07:55;15.63;;;10.30;;
14139;SDS011;7150;53.514;9.988;2022-11-15T11:10:26;15.37;;;9.13;;
14139;SDS011;7150;53.514;9.988;2022-11-15T11:12:52;15.80;;;8.57;;
14139;SDS011;7150;53.514;9.988;2022-11-15T11:15:17;13.43;;;8.53;;
14139;SDS011;7150;53.514;9.988;2022-11-15T11:20:38;14.20;;;8.40;;
14139;SDS011;7150;53.514;9.988;2022-11-15T11:31:20;15.60;;;10.03;;
14139;SDS011;7150;53.514;9.988;2022-11-15T11:33:55;16.20;;;9.43;;
14139;SDS011;7150;53.514;9.988;2022-11-15T11:36:49;15.43;;;9.17;;
14139;SDS011;7150;53.514;9.988;2022-11-15T11:47:51;13.43;;;8.73;;
14139;SDS011;7150;53.514;9.988;2022-11-15T11:50:59;15.20;;;9.53;;
14139;SDS011;7150;53.514;9.988;2022-11-15T11:53:31;18.37;;;9.83;;
14139;SDS011;7150;53.514;9.988;2022-11-15T11:56:15;16.13;;;10.43;;
14139;SDS011;7150;53.514;9.988;2022-11-15T11:58:46;16.40;;;8.47;;
14139;SDS011;7150;53.514;9.988;2022-11-15T12:01:28;18.20;;;10.83;;
14139;SDS011;7150;53.514;9.988;2022-11-15T12:03:59;14.07;;;8.37;;
14139;SDS011;7150;53.514;9.988;2022-11-15T12:15:24;13.33;;;8.37;;
14139;SDS011;7150;53.514;9.988;2022-11-15T12:17:55;13.27;;;8.27;;
14139;SDS011;7150;53.514;9.988;2022-11-15T12:20:22;14.73;;;8.63;;
14139;SDS011;7150;53.514;9.988;2022-11-15T12:34:16;12.57;;;7.80;;
14139;SDS011;7150;53.514;9.988;2022-11-15T12:36:53;13.77;;;8.30;;
14139;SDS011;7150;53.514;9.988;2022-11-15T12:39:19;13.10;;;9.17;;
14139;SDS011;7150;53.514;9.988;2022-11-15T12:47:13;15.23;;;8.87;;
14139;SDS011;7150;53.514;9.988;2022-11-15T12:49:49;12.97;;;7.80;;
14139;SDS011;7150;53.514;9.988;2022-11-15T12:52:15;12.43;;;7.83;;
14139;SDS011;7150;53.514;9.988;2022-11-15T13:02:23;9.53;;;6.77;;
14139;SDS011;7150;53.514;9.988;2022-11-15T13:04:49;13.73;;;8.20;;
14139;SDS011;7150;53.514;9.988;2022-11-15T13:10:00;11.43;;;7.20;;
14139;SDS011;7150;53.514;9.988;2022-11-15T13:25:26;10.73;;;7.70;;
14139;SDS011;7150;53.514;9.988;2022-11-15T13:30:41;11.77;;;7.90;;
14139;SDS011;7150;53.514;9.988;2022-11-15T13:35:46;10.90;;;7.00;;
14139;SDS011;7150;53.514;9.988;2022-11-15T13:38:19;11.97;;;7.70;;
14139;SDS011;7150;53.514;9.988;2022-11-15T13:40:52;12.03;;;7.73;;
14139;SDS011;7150;53.514;9.988;2022-11-15T13:46:30;11.73;;;6.43;;
14139;SDS011;7150;53.514;9.988;2022-11-15T13:48:59;10.97;;;6.57;;
14139;SDS011;7150;53.514;9.988;2022-11-15T13:54:17;9.10;;;6.40;;
14139;SDS011;7150;53.514;9.988;2022-11-15T13:56:49;11.33;;;6.67;;
14139;SDS011;7150;53.514;9.988;2022-11-15T13:59:24;9.40;;;6.87;;
14139;SDS011;7150;53.514;9.988;2022-11-15T14:01:51;15.40;;;7.93;;
14139;SDS011;7150;53.514;9.988;2022-11-15T14:04:19;13.43;;;7.27;;
14139;SDS011;7150;53.514;9.988;2022-11-15T14:06:49;11.17;;;6.73;;
14139;SDS011;7150;53.514;9.988;2022-11-15T14:11:55;12.83;;;7.00;;
14139;SDS011;7150;53.514;9.988;2022-11-15T14:14:22;10.57;;;6.47;;
14139;SDS011;7150;53.514;9.988;2022-11-15T14:16:58;11.70;;;7.17;;
14139;SDS011;7150;53.514;9.988;2022-11-15T14:24:50;11.00;;;6.60;;
14139;SDS011;7150;53.514;9.988;2022-11-15T14:27:38;11.83;;;7.87;;
14139;SDS011;7150;53.514;9.988;2022-11-15T14:30:05;10.53;;;6.97;;
14139;SDS011;7150;53.514;9.988;2022-11-15T14:32:45;11.83;;;6.43;;
14139;SDS011;7150;53.514;9.988;2022-11-15T14:35:22;11.60;;;7.00;;
14139;SDS011;7150;53.514;9.988;2022-11-15T14:37:48;10.97;;;6.60;;
14139;SDS011;7150;53.514;9.988;2022-11-15T14:40:15;10.17;;;6.53;;
14139;SDS011;7150;53.514;9.988;2022-11-15T14:42:43;10.30;;;6.80;;
14139;SDS011;7150;53.514;9.988;2022-11-15T14:45:18;12.70;;;6.70;;
14139;SDS011;7150;53.514;9.988;2022-11-15T14:47:45;9.87;;;6.53;;
14139;SDS011;7150;53.514;9.988;2022-11-15T14:50:19;11.33;;;6.90;;
14139;SDS011;7150;53.514;9.988;2022-11-15T14:52:46;11.87;;;6.90;;
14139;SDS011;7150;53.514;9.988;2022-11-15T14:57:46;10.67;;;7.30;;
14139;SDS011;7150;53.514;9.988;2022-11-15T15:00:12;12.13;;;7.40;;
14139;SDS011;7150;53.514;9.988;2022-11-15T15:02:39;8.47;;;6.20;;
14139;SDS011;7150;53.514;9.988;2022-11-15T15:05:39;9.57;;;6.50;;
14139;SDS011;7150;53.514;9.988;2022-11-15T15:07:58;10.17;;;7.10;;
14139;SDS011;7150;53.514;9.988;2022-11-15T15:10:25;12.30;;;7.03;;
14139;SDS011;7150;53.514;9.988;2022-11-15T15:12:55;11.17;;;6.63;;
14139;SDS011;7150;53.514;9.988;2022-11-15T15:15:22;10.13;;;6.97;;
14139;SDS011;7150;53.514;9.988;2022-11-15T15:17:50;12.10;;;6.90;;
14139;SDS011;7150;53.514;9.988;2022-11-15T15:20:15;8.50;;;6.37;;
14139;SDS011;7150;53.514;9.988;2022-11-15T15:22:41;11.03;;;6.13;;
14139;SDS011;7150;53.514;9.988;2022-11-15T15:25:14;12.00;;;6.77;;
14139;SDS011;7150;53.514;9.988;2022-11-15T15:27:44;9.50;;;5.97;;
14139;SDS011;7150;53.514;9.988;2022-11-15T15:30:09;13.57;;;6.90;;
14139;SDS011;7150;53.514;9.988;2022-11-15T15:32:35;10.77;;;6.30;;
14139;SDS011;7150;53.514;9.988;2022-11-15T15:35:01;11.43;;;6.33;;
14139;SDS011;7150;53.514;9.988;2022-11-15T15:37:26;14.77;;;6.90;;
14139;SDS011;7150;53.514;9.988;2022-11-15T15:39:52;13.20;;;6.90;;
14139;SDS011;7150;53.514;9.988;2022-11-15T15:42:19;10.97;;;6.27;;
14139;SDS011;7150;53.514;9.988;2022-11-15T15:44:46;9.60;;;6.17;;
14139;SDS011;7150;53.514;9.988;2022-11-15T15:47:21;11.67;;;6.67;;
14139;SDS011;7150;53.514;9.988;2022-11-15T15:49:48;12.13;;;6.60;;
14139;SDS011;7150;53.514;9.988;2022-11-15T15:52:14;10.63;;;7.07;;
14139;SDS011;7150;53.514;9.988;2022-11-15T15:54:40;12.03;;;6.93;;
14139;SDS011;7150;53.514;9.988;2022-11-15T15:57:06;9.60;;;6.60;;
14139;SDS011;7150;53.514;9.988;2022-11-15T15:59:33;9.77;;;6.67;;
14139;SDS011;7150;53.514;9.988;2022-11-15T16:01:58;10.83;;;7.20;;
14139;SDS011;7150;53.514;9.988;2022-11-15T16:04:24;11.67;;;6.93;;
14139;SDS011;7150;53.514;9.988;2022-11-15T16:06:49;15.83;;;7.43;;
14139;SDS011;7150;53.514;9.988;2022-11-15T16:09:18;9.57;;;5.80;;
14139;SDS011;7150;53.514;9.988;2022-11-15T16:12:04;11.53;;;6.87;;
14139;SDS011;7150;53.514;9.988;2022-11-15T16:14:30;10.67;;;7.40;;
14139;SDS011;7150;53.514;9.988;2022-11-15T16:16:56;10.00;;;6.30;;
14139;SDS011;7150;53.514;9.988;2022-11-15T16:19:22;11.80;;;7.50;;
14139;SDS011;7150;53.514;9.988;2022-11-15T16:21:47;14.13;;;8.10;;
14139;SDS011;7150;53.514;9.988;2022-11-15T16:24:13;9.43;;;6.07;;
14139;SDS011;7150;53.514;9.988;2022-11-15T16:26:38;9.97;;;6.60;;
14139;SDS011;7150;53.514;9.988;2022-11-15T16:29:04;11.43;;;7.17;;
14139;SDS011;7150;53.514;9.988;2022-11-15T16:31:31;9.47;;;6.57;;
14139;SDS011;7150;53.514;9.988;2022-11-15T16:33:57;9.87;;;6.93;;
14139;SDS011;7150;53.514;9.988;2022-11-15T16:36:23;10.80;;;6.87;;
14139;SDS011;7150;53.514;9.988;2022-11-15T16:38:50;9.63;;;6.47;;
14139;SDS011;7150;53.514;9.988;2022-11-15T16:41:16;11.10;;;6.40;;
14139;SDS011;7150;53.514;9.988;2022-11-15T16:43:43;10.47;;;6.30;;
14139;SDS011;7150;53.514;9.988;2022-11-15T16:46:23;11.23;;;7.10;;
14139;SDS011;7150;53.514;9.988;2022-11-15T16:48:50;10.87;;;6.83;;
14139;SDS011;7150;53.514;9.988;2022-11-15T16:51:17;11.80;;;6.37;;
14139;SDS011;7150;53.514;9.988;2022-11-15T16:53:43;9.73;;;6.23;;
14139;SDS011;7150;53.514;9.988;2022-11-15T16:56:22;11.63;;;7.00;;
14139;SDS011;7150;53.514;9.988;2022-11-15T16:58:56;11.93;;;6.50;;
14139;SDS011;7150;53.514;9.988;2022-11-15T17:01:27;10.60;;;7.07;;
14139;SDS011;7150;53.514;9.988;2022-11-15T17:04:00;11.47;;;6.97;;
14139;SDS011;7150;53.514;9.988;2022-11-15T17:06:36;10.13;;;5.73;;
14139;SDS011;7150;53.514;9.988;2022-11-15T17:09:03;13.30;;;7.23;;
14139;SDS011;7150;53.514;9.988;2022-11-15T17:11:28;10.17;;;6.87;;
14139;SDS011;7150;53.514;9.988;2022-11-15T17:13:57;10.17;;;6.30;;